sensor_id;sensor_type;location;lat;lon;timestamp;pressure;altitude;pressure_sealevel;temperature;humidity
76594;BME280;65482;50.240;14.302;2024-02-14T00:01:40;100094.50;;;-0.11;76.42
76594;BME280;65482;50.240;14.302;2024-02-14T00:04:06;100095.50;;;-0.13;76.81
76594;BME280;65482;50.240;14.302;2024-02-14T00:06:36;100100.63;;;-0.12;76.61
76594;BME280;65482;50.240;14.302;2024-02-14T00:09:02;100100.31;;;-0.06;77.26
76594;BME280;65482;50.240;14.302;2024-02-14T00:11:28;100094.88;;;-0.01;76.91
76594;BME280;65482;50.240;14.302;2024-02-14T00:13:53;100090.19;;;0.06;77.07
76594;BME280;65482;50.240;14.302;2024-02-14T00:16:21;100090.63;;;0.14;77.05
76594;BME280;65482;50.240;14.302;2024-02-14T00:18:46;100103.22;;;0.22;76.72
76594;BME280;65482;50.240;14.302;2024-02-14T00:21:12;100102.13;;;0.26;76.29
76594;BME280;65482;50.240;14.302;2024-02-14T00:23:38;100104.50;;;0.30;76.13
76594;BME280;65482;50.240;14.302;2024-02-14T00:26:03;100106.84;;;0.35;76.23
76594;BME280;65482;50.240;14.302;2024-02-14T00:28:29;100110.22;;;0.37;75.76
76594;BME280;65482;50.240;14.302;2024-02-14T00:30:55;100113.47;;;0.41;75.71
76594;BME280;65482;50.240;14.302;2024-02-14T00:33:20;100115.00;;;0.45;75.73
76594;BME280;65482;50.240;14.302;2024-02-14T00:35:47;100113.84;;;0.50;75.95
76594;BME280;65482;50.240;14.302;2024-02-14T00:38:12;100119.59;;;0.55;75.76
76594;BME280;65482;50.240;14.302;2024-02-14T00:40:38;100121.03;;;0.61;75.85
76594;BME280;65482;50.240;14.302;2024-02-14T00:43:03;100122.56;;;0.65;75.29
76594;BME280;65482;50.240;14.302;2024-02-14T00:45:29;100116.28;;;0.69;75.12
76594;BME280;65482;50.240;14.302;2024-02-14T00:47:55;100116.03;;;0.74;74.90
76594;BME280;65482;50.240;14.302;2024-02-14T00:50:21;100106.22;;;0.79;74.90
76594;BME280;65482;50.240;14.302;2024-02-14T00:52:46;100108.47;;;0.85;74.98
76594;BME280;65482;50.240;14.302;2024-02-14T00:55:12;100110.84;;;0.90;75.17
76594;BME280;65482;50.240;14.302;2024-02-14T00:57:38;100113.88;;;0.98;74.76
76594;BME280;65482;50.240;14.302;2024-02-14T01:00:04;100112.78;;;1.02;73.96
76594;BME280;65482;50.240;14.302;2024-02-14T01:02:31;100108.41;;;1.03;74.13
76594;BME280;65482;50.240;14.302;2024-02-14T01:04:57;100107.50;;;1.04;74.30
76594;BME280;65482;50.240;14.302;2024-02-14T01:07:23;100100.44;;;1.06;74.23
76594;BME280;65482;50.240;14.302;2024-02-14T01:09:50;100100.19;;;1.10;74.40
76594;BME280;65482;50.240;14.302;2024-02-14T01:12:15;100101.69;;;1.14;74.41
76594;BME280;65482;50.240;14.302;2024-02-14T01:14:42;100095.47;;;1.17;74.25
76594;BME280;65482;50.240;14.302;2024-02-14T01:17:07;100102.53;;;1.15;74.72
76594;BME280;65482;50.240;14.302;2024-02-14T01:19:33;100107.78;;;1.13;74.16
76594;BME280;65482;50.240;14.302;2024-02-14T01:21:59;100105.38;;;1.10;74.10
76594;BME280;65482;50.240;14.302;2024-02-14T01:24:24;100104.63;;;1.08;73.89
76594;BME280;65482;50.240;14.302;2024-02-14T01:26:55;100100.00;;;0.97;73.86
76594;BME280;65482;50.240;14.302;2024-02-14T01:29:21;100095.91;;;0.93;74.06
76594;BME280;65482;50.240;14.302;2024-02-14T01:31:48;100094.41;;;0.89;74.59
76594;BME280;65482;50.240;14.302;2024-02-14T01:34:15;100095.09;;;0.93;74.53
76594;BME280;65482;50.240;14.302;2024-02-14T01:36:41;100099.72;;;0.88;74.85
76594;BME280;65482;50.240;14.302;2024-02-14T01:39:07;100098.63;;;0.92;74.81
76594;BME280;65482;50.240;14.302;2024-02-14T01:41:37;100095.28;;;0.90;75.04
76594;BME280;65482;50.240;14.302;2024-02-14T01:44:03;100097.88;;;0.90;74.85
76594;BME280;65482;50.240;14.302;2024-02-14T01:46:30;100095.84;;;0.95;74.91
76594;BME280;65482;50.240;14.302;2024-02-14T01:48:56;100094.50;;;1.04;75.02
76594;BME280;65482;50.240;14.302;2024-02-14T01:51:23;100096.84;;;1.08;74.83
76594;BME280;65482;50.240;14.302;2024-02-14T01:53:53;100093.22;;;1.11;74.80
76594;BME280;65482;50.240;14.302;2024-02-14T01:56:20;100095.59;;;1.15;74.83
76594;BME280;65482;50.240;14.302;2024-02-14T01:58:46;100096.16;;;1.21;74.80
76594;BME280;65482;50.240;14.302;2024-02-14T02:01:12;100094.97;;;1.26;74.34
76594;BME280;65482;50.240;14.302;2024-02-14T02:03:38;100095.63;;;1.30;74.57
76594;BME280;65482;50.240;14.302;2024-02-14T02:06:05;100091.09;;;1.33;74.52
76594;BME280;65482;50.240;14.302;2024-02-14T02:08:31;100088.22;;;1.38;74.93
76594;BME280;65482;50.240;14.302;2024-02-14T02:10:57;100097.53;;;1.42;75.02
76594;BME280;65482;50.240;14.302;2024-02-14T02:13:23;100090.22;;;1.49;74.54
76594;BME280;65482;50.240;14.302;2024-02-14T02:15:54;100092.66;;;1.52;74.39
76594;BME280;65482;50.240;14.302;2024-02-14T02:18:20;100084.66;;;1.55;74.45
76594;BME280;65482;50.240;14.302;2024-02-14T02:20:45;100086.13;;;1.59;74.42
76594;BME280;65482;50.240;14.302;2024-02-14T02:23:12;100083.47;;;1.61;74.10
76594;BME280;65482;50.240;14.302;2024-02-14T02:25:41;100085.91;;;1.64;73.89
76594;BME280;65482;50.240;14.302;2024-02-14T02:28:08;100077.81;;;1.68;74.06
76594;BME280;65482;50.240;14.302;2024-02-14T02:30:35;100085.44;;;1.71;74.38
76594;BME280;65482;50.240;14.302;2024-02-14T02:33:01;100078.28;;;1.75;74.10
76594;BME280;65482;50.240;14.302;2024-02-14T02:35:28;100082.28;;;1.81;74.25
76594;BME280;65482;50.240;14.302;2024-02-14T02:37:53;100088.16;;;1.84;73.89
76594;BME280;65482;50.240;14.302;2024-02-14T02:40:19;100100.81;;;1.90;74.34
76594;BME280;65482;50.240;14.302;2024-02-14T02:42:47;100093.81;;;1.91;74.13
76594;BME280;65482;50.240;14.302;2024-02-14T02:45:13;100098.13;;;1.92;74.11
76594;BME280;65482;50.240;14.302;2024-02-14T02:47:39;100095.44;;;1.93;73.49
76594;BME280;65482;50.240;14.302;2024-02-14T02:50:06;100097.75;;;1.98;74.19
76594;BME280;65482;50.240;14.302;2024-02-14T02:52:33;100094.13;;;2.01;74.34
76594;BME280;65482;50.240;14.302;2024-02-14T02:55:00;100090.69;;;2.00;74.49
76594;BME280;65482;50.240;14.302;2024-02-14T02:57:27;100089.66;;;2.03;74.46
76594;BME280;65482;50.240;14.302;2024-02-14T02:59:53;100090.69;;;2.00;74.00
76594;BME280;65482;50.240;14.302;2024-02-14T03:02:19;100090.97;;;1.95;74.76
76594;BME280;65482;50.240;14.302;2024-02-14T03:04:46;100090.59;;;1.87;74.93
76594;BME280;65482;50.240;14.302;2024-02-14T03:07:12;100093.28;;;1.86;75.13
76594;BME280;65482;50.240;14.302;2024-02-14T03:09:38;100093.94;;;1.89;75.18
76594;BME280;65482;50.240;14.302;2024-02-14T03:12:03;100093.66;;;1.94;75.09
76594;BME280;65482;50.240;14.302;2024-02-14T03:14:32;100092.47;;;1.99;75.11
76594;BME280;65482;50.240;14.302;2024-02-14T03:17:04;100100.81;;;2.05;75.18
76594;BME280;65482;50.240;14.302;2024-02-14T03:19:30;100092.25;;;2.03;74.84
76594;BME280;65482;50.240;14.302;2024-02-14T03:21:56;100090.41;;;2.05;74.80
76594;BME280;65482;50.240;14.302;2024-02-14T03:24:23;100090.59;;;2.02;74.56
76594;BME280;65482;50.240;14.302;2024-02-14T03:26:51;100084.75;;;1.98;74.52
76594;BME280;65482;50.240;14.302;2024-02-14T03:29:19;100091.78;;;1.96;74.32
76594;BME280;65482;50.240;14.302;2024-02-14T03:31:46;100095.59;;;1.90;74.64
76594;BME280;65482;50.240;14.302;2024-02-14T03:34:12;100099.22;;;1.88;74.95
76594;BME280;65482;50.240;14.302;2024-02-14T03:36:38;100096.16;;;1.81;75.05
76594;BME280;65482;50.240;14.302;2024-02-14T03:39:05;100096.69;;;1.72;75.24
76594;BME280;65482;50.240;14.302;2024-02-14T03:41:32;100095.28;;;1.66;75.38
76594;BME280;65482;50.240;14.302;2024-02-14T03:43:58;100098.31;;;1.58;75.45
76594;BME280;65482;50.240;14.302;2024-02-14T03:46:26;100091.06;;;1.49;75.67
76594;BME280;65482;50.240;14.302;2024-02-14T03:48:54;100087.53;;;1.50;75.75
76594;BME280;65482;50.240;14.302;2024-02-14T03:51:19;100090.56;;;1.43;75.82
76594;BME280;65482;50.240;14.302;2024-02-14T03:53:46;100084.63;;;1.41;76.12
76594;BME280;65482;50.240;14.302;2024-02-14T03:56:11;100083.69;;;1.42;76.27
76594;BME280;65482;50.240;14.302;2024-02-14T03:58:38;100085.09;;;1.47;76.22
76594;BME280;65482;50.240;14.302;2024-02-14T04:01:04;100081.31;;;1.53;76.22
76594;BME280;65482;50.240;14.302;2024-02-14T04:03:30;100075.00;;;1.57;76.38
76594;BME280;65482;50.240;14.302;2024-02-14T04:05:56;100085.81;;;1.65;75.84
76594;BME280;65482;50.240;14.302;2024-02-14T04:08:22;100082.34;;;1.65;75.73
76594;BME280;65482;50.240;14.302;2024-02-14T04:10:47;100083.00;;;1.68;75.45
76594;BME280;65482;50.240;14.302;2024-02-14T04:13:15;100084.44;;;1.74;75.18
76594;BME280;65482;50.240;14.302;2024-02-14T04:15:40;100084.16;;;1.78;74.99
76594;BME280;65482;50.240;14.302;2024-02-14T04:18:08;100086.31;;;1.86;74.85
76594;BME280;65482;50.240;14.302;2024-02-14T04:20:34;100086.13;;;1.89;75.21
76594;BME280;65482;50.240;14.302;2024-02-14T04:23:00;100090.38;;;1.90;74.61
76594;BME280;65482;50.240;14.302;2024-02-14T04:25:25;100090.31;;;1.92;74.32
76594;BME280;65482;50.240;14.302;2024-02-14T04:27:51;100087.50;;;1.95;74.59
76594;BME280;65482;50.240;14.302;2024-02-14T04:30:16;100088.38;;;1.95;74.76
76594;BME280;65482;50.240;14.302;2024-02-14T04:32:42;100082.13;;;1.98;74.44
76594;BME280;65482;50.240;14.302;2024-02-14T04:35:09;100083.81;;;1.99;74.85
76594;BME280;65482;50.240;14.302;2024-02-14T04:37:35;100081.56;;;1.93;74.36
76594;BME280;65482;50.240;14.302;2024-02-14T04:40:02;100072.19;;;1.90;74.66
76594;BME280;65482;50.240;14.302;2024-02-14T04:42:29;100071.53;;;1.87;74.98
76594;BME280;65482;50.240;14.302;2024-02-14T04:44:55;100074.25;;;1.85;74.92
76594;BME280;65482;50.240;14.302;2024-02-14T04:47:21;100081.19;;;1.85;74.81
76594;BME280;65482;50.240;14.302;2024-02-14T04:49:46;100077.94;;;1.81;74.51
76594;BME280;65482;50.240;14.302;2024-02-14T04:52:12;100080.25;;;1.71;75.08
76594;BME280;65482;50.240;14.302;2024-02-14T04:54:38;100076.31;;;1.64;75.55
76594;BME280;65482;50.240;14.302;2024-02-14T04:57:03;100068.81;;;1.59;75.44
76594;BME280;65482;50.240;14.302;2024-02-14T04:59:30;100065.69;;;1.53;75.65
76594;BME280;65482;50.240;14.302;2024-02-14T05:01:55;100073.84;;;1.47;75.75
76594;BME280;65482;50.240;14.302;2024-02-14T05:04:22;100068.84;;;1.44;75.72
76594;BME280;65482;50.240;14.302;2024-02-14T05:06:48;100071.06;;;1.35;75.59
76594;BME280;65482;50.240;14.302;2024-02-14T05:09:15;100072.41;;;1.27;75.94
76594;BME280;65482;50.240;14.302;2024-02-14T05:11:41;100079.53;;;1.23;76.50
76594;BME280;65482;50.240;14.302;2024-02-14T05:14:06;100077.59;;;1.27;76.26
76594;BME280;65482;50.240;14.302;2024-02-14T05:16:32;100077.69;;;1.25;76.33
76594;BME280;65482;50.240;14.302;2024-02-14T05:18:58;100076.59;;;1.29;76.36
76594;BME280;65482;50.240;14.302;2024-02-14T05:21:24;100076.16;;;1.37;76.80
76594;BME280;65482;50.240;14.302;2024-02-14T05:23:49;100073.84;;;1.47;76.68
76594;BME280;65482;50.240;14.302;2024-02-14T05:26:17;100069.41;;;1.49;76.58
76594;BME280;65482;50.240;14.302;2024-02-14T05:28:42;100077.59;;;1.57;77.24
76594;BME280;65482;50.240;14.302;2024-02-14T05:31:08;100077.00;;;1.68;77.06
76594;BME280;65482;50.240;14.302;2024-02-14T05:33:33;100082.66;;;1.74;76.27
76594;BME280;65482;50.240;14.302;2024-02-14T05:35:59;100083.31;;;1.78;76.19
76594;BME280;65482;50.240;14.302;2024-02-14T05:38:24;100085.19;;;1.76;75.66
76594;BME280;65482;50.240;14.302;2024-02-14T05:40:50;100084.06;;;1.80;75.54
76594;BME280;65482;50.240;14.302;2024-02-14T05:43:16;100082.94;;;1.84;75.19
76594;BME280;65482;50.240;14.302;2024-02-14T05:45:43;100081.94;;;1.87;74.54
76594;BME280;65482;50.240;14.302;2024-02-14T05:48:09;100088.81;;;1.88;74.53
76594;BME280;65482;50.240;14.302;2024-02-14T05:50:35;100082.78;;;1.87;74.47
76594;BME280;65482;50.240;14.302;2024-02-14T05:53:03;100086.22;;;1.88;74.55
76594;BME280;65482;50.240;14.302;2024-02-14T05:55:29;100082.03;;;1.85;74.57
76594;BME280;65482;50.240;14.302;2024-02-14T05:57:54;100081.09;;;1.86;74.17
76594;BME280;65482;50.240;14.302;2024-02-14T06:00:20;100084.72;;;1.84;74.45
76594;BME280;65482;50.240;14.302;2024-02-14T06:02:47;100087.25;;;1.85;74.25
76594;BME280;65482;50.240;14.302;2024-02-14T06:05:14;100085.56;;;1.84;74.55
76594;BME280;65482;50.240;14.302;2024-02-14T06:07:40;100088.34;;;1.81;74.42
76594;BME280;65482;50.240;14.302;2024-02-14T06:10:07;100086.84;;;1.77;74.26
76594;BME280;65482;50.240;14.302;2024-02-14T06:12:33;100087.78;;;1.76;74.55
76594;BME280;65482;50.240;14.302;2024-02-14T06:15:00;100088.81;;;1.73;75.04
76594;BME280;65482;50.240;14.302;2024-02-14T06:17:26;100093.41;;;1.68;74.77
76594;BME280;65482;50.240;14.302;2024-02-14T06:20:22;100090.75;;;1.70;75.04
76594;BME280;65482;50.240;14.302;2024-02-14T07:02:38;100098.03;;;3.07;72.64
76594;BME280;65482;50.240;14.302;2024-02-14T07:05:35;100107.28;;;3.38;71.53
76594;BME280;65482;50.240;14.302;2024-02-14T07:09:01;100102.75;;;3.54;71.34
76594;BME280;65482;50.240;14.302;2024-02-14T07:16:32;100117.72;;;4.04;68.82
76594;BME280;65482;50.240;14.302;2024-02-14T07:26:18;100111.66;;;3.65;69.19
76594;BME280;65482;50.240;14.302;2024-02-14T08:00:41;100097.81;;;4.03;68.68
76594;BME280;65482;50.240;14.302;2024-02-14T08:03:37;100097.38;;;4.09;69.26
76594;BME280;65482;50.240;14.302;2024-02-14T08:06:08;100089.66;;;4.07;68.41
76594;BME280;65482;50.240;14.302;2024-02-14T08:08:33;100085.69;;;4.14;68.91
76594;BME280;65482;50.240;14.302;2024-02-14T08:10:59;100084.84;;;4.27;68.90
76594;BME280;65482;50.240;14.302;2024-02-14T08:13:25;100089.09;;;4.41;68.21
76594;BME280;65482;50.240;14.302;2024-02-14T08:15:51;100086.69;;;4.50;68.11
76594;BME280;65482;50.240;14.302;2024-02-14T08:18:20;100077.66;;;4.67;67.49
76594;BME280;65482;50.240;14.302;2024-02-14T08:20:46;100079.22;;;4.70;67.45
76594;BME280;65482;50.240;14.302;2024-02-14T08:23:12;100088.09;;;4.80;67.56
76594;BME280;65482;50.240;14.302;2024-02-14T08:25:38;100083.56;;;4.82;67.69
76594;BME280;65482;50.240;14.302;2024-02-14T08:28:03;100085.91;;;4.74;67.75
76594;BME280;65482;50.240;14.302;2024-02-14T08:30:29;100077.09;;;4.88;67.63
76594;BME280;65482;50.240;14.302;2024-02-14T08:32:54;100075.47;;;4.98;67.52
76594;BME280;65482;50.240;14.302;2024-02-14T08:35:20;100077.19;;;5.10;66.73
76594;BME280;65482;50.240;14.302;2024-02-14T08:37:46;100071.34;;;5.07;66.79
76594;BME280;65482;50.240;14.302;2024-02-14T08:40:12;100074.94;;;5.17;66.73
76594;BME280;65482;50.240;14.302;2024-02-14T08:42:37;100075.53;;;5.09;66.60
76594;BME280;65482;50.240;14.302;2024-02-14T08:45:04;100069.06;;;5.02;66.77
76594;BME280;65482;50.240;14.302;2024-02-14T08:47:32;100072.50;;;5.03;67.27
76594;BME280;65482;50.240;14.302;2024-02-14T08:49:58;100076.13;;;5.13;67.03
76594;BME280;65482;50.240;14.302;2024-02-14T08:52:27;100079.31;;;5.29;67.33
76594;BME280;65482;50.240;14.302;2024-02-14T08:58:45;100078.09;;;5.69;66.68
76594;BME280;65482;50.240;14.302;2024-02-14T09:01:11;100079.97;;;5.91;66.21
76594;BME280;65482;50.240;14.302;2024-02-14T09:03:40;100069.50;;;6.02;65.38
76594;BME280;65482;50.240;14.302;2024-02-14T09:06:08;100068.81;;;6.11;65.41
76594;BME280;65482;50.240;14.302;2024-02-14T09:08:35;100065.63;;;6.19;64.65
76594;BME280;65482;50.240;14.302;2024-02-14T09:11:00;100057.59;;;6.21;64.22
76594;BME280;65482;50.240;14.302;2024-02-14T09:13:26;100063.47;;;6.35;64.02
76594;BME280;65482;50.240;14.302;2024-02-14T09:15:56;100058.56;;;6.53;63.85
76594;BME280;65482;50.240;14.302;2024-02-14T09:18:33;100049.72;;;6.66;62.99
76594;BME280;65482;50.240;14.302;2024-02-14T09:21:01;100050.63;;;6.87;62.44
76594;BME280;65482;50.240;14.302;2024-02-14T09:23:40;100044.28;;;7.01;62.13
76594;BME280;65482;50.240;14.302;2024-02-14T09:26:07;100040.91;;;7.10;61.48
76594;BME280;65482;50.240;14.302;2024-02-14T09:28:33;100037.78;;;7.37;61.59
76594;BME280;65482;50.240;14.302;2024-02-14T09:31:02;100044.13;;;7.35;61.28
76594;BME280;65482;50.240;14.302;2024-02-14T09:33:29;100041.56;;;7.24;60.95
76594;BME280;65482;50.240;14.302;2024-02-14T09:35:56;100040.69;;;7.34;61.86
76594;BME280;65482;50.240;14.302;2024-02-14T09:38:21;100045.63;;;7.49;61.03
76594;BME280;65482;50.240;14.302;2024-02-14T09:40:49;100045.28;;;7.84;60.17
76594;BME280;65482;50.240;14.302;2024-02-14T09:43:27;100037.53;;;8.13;59.38
76594;BME280;65482;50.240;14.302;2024-02-14T10:03:15;100033.22;;;9.32;56.91
76594;BME280;65482;50.240;14.302;2024-02-14T10:13:48;100043.66;;;9.91;53.60
76594;BME280;65482;50.240;14.302;2024-02-14T10:17:06;100041.19;;;10.27;54.16
76594;BME280;65482;50.240;14.302;2024-02-14T10:20:29;100040.81;;;10.49;53.22
76594;BME280;65482;50.240;14.302;2024-02-14T10:41:58;100028.97;;;10.99;50.68
76594;BME280;65482;50.240;14.302;2024-02-14T11:07:24;100012.13;;;11.80;48.92
76594;BME280;65482;50.240;14.302;2024-02-14T11:36:25;99980.03;;;12.44;48.52
76594;BME280;65482;50.240;14.302;2024-02-14T12:05:15;99959.09;;;11.55;50.87
76594;BME280;65482;50.240;14.302;2024-02-14T12:17:01;99954.81;;;11.28;51.96
76594;BME280;65482;50.240;14.302;2024-02-14T12:28:25;99953.19;;;11.62;51.37
76594;BME280;65482;50.240;14.302;2024-02-14T12:35:22;99955.38;;;11.66;51.39
76594;BME280;65482;50.240;14.302;2024-02-14T12:37:48;99951.69;;;11.59;51.44
76594;BME280;65482;50.240;14.302;2024-02-14T12:40:14;99954.25;;;11.43;52.25
76594;BME280;65482;50.240;14.302;2024-02-14T12:42:40;99961.13;;;11.35;52.29
76594;BME280;65482;50.240;14.302;2024-02-14T12:45:05;99952.13;;;11.20;53.22
76594;BME280;65482;50.240;14.302;2024-02-14T12:47:32;99948.81;;;11.18;53.01
76594;BME280;65482;50.240;14.302;2024-02-14T12:50:00;99955.78;;;11.27;53.49
76594;BME280;65482;50.240;14.302;2024-02-14T12:52:26;99945.94;;;11.38;53.45
76594;BME280;65482;50.240;14.302;2024-02-14T12:54:52;99949.47;;;11.46;53.21
76594;BME280;65482;50.240;14.302;2024-02-14T12:57:18;99947.56;;;11.57;52.63
76594;BME280;65482;50.240;14.302;2024-02-14T12:59:46;99942.81;;;11.60;52.73
76594;BME280;65482;50.240;14.302;2024-02-14T13:02:12;99932.34;;;11.50;52.87
76594;BME280;65482;50.240;14.302;2024-02-14T13:04:37;99933.00;;;11.52;52.99
76594;BME280;65482;50.240;14.302;2024-02-14T13:07:04;99927.72;;;11.52;53.21
76594;BME280;65482;50.240;14.302;2024-02-14T13:09:30;99927.72;;;11.52;53.15
76594;BME280;65482;50.240;14.302;2024-02-14T13:11:56;99933.81;;;11.53;53.26
76594;BME280;65482;50.240;14.302;2024-02-14T13:14:21;99934.16;;;11.50;53.75
76594;BME280;65482;50.240;14.302;2024-02-14T13:16:48;99922.41;;;11.44;53.37
76594;BME280;65482;50.240;14.302;2024-02-14T13:19:13;99918.22;;;11.42;54.12
76594;BME280;65482;50.240;14.302;2024-02-14T13:21:39;99920.44;;;11.46;54.27
76594;BME280;65482;50.240;14.302;2024-02-14T13:24:06;99914.03;;;11.57;53.90
76594;BME280;65482;50.240;14.302;2024-02-14T13:26:33;99918.06;;;11.69;53.75
76594;BME280;65482;50.240;14.302;2024-02-14T13:28:59;99915.44;;;11.78;53.76
76594;BME280;65482;50.240;14.302;2024-02-14T13:31:28;99915.09;;;11.99;53.34
76594;BME280;65482;50.240;14.302;2024-02-14T13:33:54;99923.31;;;11.96;53.28
76594;BME280;65482;50.240;14.302;2024-02-14T13:36:20;99916.44;;;12.11;52.90
76594;BME280;65482;50.240;14.302;2024-02-14T13:38:49;99913.50;;;12.22;52.96
76594;BME280;65482;50.240;14.302;2024-02-14T13:41:15;99916.81;;;12.24;53.02
76594;BME280;65482;50.240;14.302;2024-02-14T13:43:40;99931.19;;;12.22;53.24
76594;BME280;65482;50.240;14.302;2024-02-14T13:46:07;99925.91;;;12.22;52.72
76594;BME280;65482;50.240;14.302;2024-02-14T13:48:34;99925.25;;;12.20;53.58
76594;BME280;65482;50.240;14.302;2024-02-14T13:51:03;99922.41;;;12.21;53.16
76594;BME280;65482;50.240;14.302;2024-02-14T13:53:29;99926.56;;;12.16;53.44
76594;BME280;65482;50.240;14.302;2024-02-14T13:55:54;99926.03;;;12.12;53.44
76594;BME280;65482;50.240;14.302;2024-02-14T13:58:20;99926.84;;;12.04;53.76
76594;BME280;65482;50.240;14.302;2024-02-14T14:00:47;99923.50;;;11.94;53.67
76594;BME280;65482;50.240;14.302;2024-02-14T14:03:13;99919.34;;;11.91;53.52
76594;BME280;65482;50.240;14.302;2024-02-14T14:05:38;99917.28;;;11.77;54.21
76594;BME280;65482;50.240;14.302;2024-02-14T14:08:04;99928.75;;;11.60;54.60
76594;BME280;65482;50.240;14.302;2024-02-14T14:10:30;99920.25;;;11.48;54.93
76594;BME280;65482;50.240;14.302;2024-02-14T14:12:55;99933.25;;;11.41;55.18
76594;BME280;65482;50.240;14.302;2024-02-14T14:15:21;99935.84;;;11.33;55.64
76594;BME280;65482;50.240;14.302;2024-02-14T14:17:47;99934.69;;;11.35;56.18
76594;BME280;65482;50.240;14.302;2024-02-14T14:20:13;99930.09;;;11.38;55.98
76594;BME280;65482;50.240;14.302;2024-02-14T14:22:38;99935.38;;;11.38;56.20
76594;BME280;65482;50.240;14.302;2024-02-14T14:25:05;99939.13;;;11.27;56.64
76594;BME280;65482;50.240;14.302;2024-02-14T14:27:33;99941.91;;;11.25;56.50
76594;BME280;65482;50.240;14.302;2024-02-14T14:30:00;99939.16;;;11.09;57.37
76594;BME280;65482;50.240;14.302;2024-02-14T14:32:27;99936.59;;;10.99;57.49
76594;BME280;65482;50.240;14.302;2024-02-14T14:34:52;99947.63;;;10.94;58.02
76594;BME280;65482;50.240;14.302;2024-02-14T14:37:18;99938.63;;;10.87;58.22
76594;BME280;65482;50.240;14.302;2024-02-14T14:39:44;99946.69;;;10.86;58.32
76594;BME280;65482;50.240;14.302;2024-02-14T14:42:10;99955.63;;;10.85;58.33
76594;BME280;65482;50.240;14.302;2024-02-14T14:44:35;99958.41;;;10.83;58.60
76594;BME280;65482;50.240;14.302;2024-02-14T14:47:02;99958.94;;;10.87;58.52
76594;BME280;65482;50.240;14.302;2024-02-14T14:49:27;99959.81;;;10.78;58.64
76594;BME280;65482;50.240;14.302;2024-02-14T14:51:53;99962.47;;;10.78;58.86
76594;BME280;65482;50.240;14.302;2024-02-14T14:54:19;99959.47;;;10.72;59.24
76594;BME280;65482;50.240;14.302;2024-02-14T14:56:45;99965.63;;;10.81;59.17
76594;BME280;65482;50.240;14.302;2024-02-14T14:59:11;99971.59;;;10.83;59.22
76594;BME280;65482;50.240;14.302;2024-02-14T15:01:37;99975.38;;;10.81;59.33
76594;BME280;65482;50.240;14.302;2024-02-14T15:04:04;99974.22;;;10.83;59.22
76594;BME280;65482;50.240;14.302;2024-02-14T15:06:31;99962.72;;;10.84;59.37
76594;BME280;65482;50.240;14.302;2024-02-14T15:08:57;99961.03;;;10.83;59.40
76594;BME280;65482;50.240;14.302;2024-02-14T15:11:23;99964.13;;;10.79;59.71
76594;BME280;65482;50.240;14.302;2024-02-14T15:13:48;99968.56;;;10.78;59.41
76594;BME280;65482;50.240;14.302;2024-02-14T15:16:14;99970.69;;;10.74;59.63
76594;BME280;65482;50.240;14.302;2024-02-14T15:18:40;99966.69;;;10.70;59.72
76594;BME280;65482;50.240;14.302;2024-02-14T15:21:11;99968.41;;;10.62;59.82
76594;BME280;65482;50.240;14.302;2024-02-14T15:23:37;99967.59;;;10.61;59.84
76594;BME280;65482;50.240;14.302;2024-02-14T15:26:03;99975.56;;;10.51;60.04
76594;BME280;65482;50.240;14.302;2024-02-14T15:28:29;99972.25;;;10.49;60.21
76594;BME280;65482;50.240;14.302;2024-02-14T15:30:56;99972.84;;;10.43;60.27
76594;BME280;65482;50.240;14.302;2024-02-14T15:33:40;99979.66;;;10.36;60.55
76594;BME280;65482;50.240;14.302;2024-02-14T15:36:06;99972.63;;;10.37;60.34
76594;BME280;65482;50.240;14.302;2024-02-14T15:38:32;99975.94;;;10.39;60.41
76594;BME280;65482;50.240;14.302;2024-02-14T15:40:58;99979.53;;;10.38;60.63
76594;BME280;65482;50.240;14.302;2024-02-14T15:43:27;99973.44;;;10.37;60.26
76594;BME280;65482;50.240;14.302;2024-02-14T15:45:54;99975.53;;;10.33;60.55
76594;BME280;65482;50.240;14.302;2024-02-14T15:48:20;99970.13;;;10.25;60.69
76594;BME280;65482;50.240;14.302;2024-02-14T15:50:45;99970.41;;;10.22;60.56
76594;BME280;65482;50.240;14.302;2024-02-14T15:53:12;99970.41;;;10.22;60.66
76594;BME280;65482;50.240;14.302;2024-02-14T15:55:37;99971.41;;;10.21;60.90
76594;BME280;65482;50.240;14.302;2024-02-14T15:58:04;99975.66;;;10.32;60.36
76594;BME280;65482;50.240;14.302;2024-02-14T16:00:30;99971.28;;;10.23;60.46
76594;BME280;65482;50.240;14.302;2024-02-14T16:02:58;99975.00;;;10.20;60.77
76594;BME280;65482;50.240;14.302;2024-02-14T16:05:23;99971.84;;;10.16;60.90
76594;BME280;65482;50.240;14.302;2024-02-14T16:07:49;99973.78;;;10.14;61.27
76594;BME280;65482;50.240;14.302;2024-02-14T16:10:15;99977.56;;;10.12;61.15
76594;BME280;65482;50.240;14.302;2024-02-14T16:12:44;99982.81;;;10.12;61.32
76594;BME280;65482;50.240;14.302;2024-02-14T16:15:11;99986.59;;;10.09;61.16
76594;BME280;65482;50.240;14.302;2024-02-14T16:17:37;99981.31;;;10.09;61.70
76594;BME280;65482;50.240;14.302;2024-02-14T16:20:04;99988.91;;;10.12;61.63
76594;BME280;65482;50.240;14.302;2024-02-14T16:22:32;99989.22;;;10.09;61.58
76594;BME280;65482;50.240;14.302;2024-02-14T16:24:58;99984.91;;;10.08;61.50
76594;BME280;65482;50.240;14.302;2024-02-14T16:27:24;99990.22;;;9.99;61.86
76594;BME280;65482;50.240;14.302;2024-02-14T16:29:50;99993.72;;;9.99;62.04
76594;BME280;65482;50.240;14.302;2024-02-14T16:32:15;100008.97;;;9.95;61.91
76594;BME280;65482;50.240;14.302;2024-02-14T16:34:41;100007.47;;;9.93;62.24
76594;BME280;65482;50.240;14.302;2024-02-14T16:37:08;100012.06;;;9.91;62.22
76594;BME280;65482;50.240;14.302;2024-02-14T16:39:34;100010.25;;;9.91;62.36
76594;BME280;65482;50.240;14.302;2024-02-14T16:42:00;100006.09;;;9.89;62.52